Time;durP1;ratioP1;P1;durP2;ratioP2;P2;SDS_P1;SDS_P2;PMS_P1;PMS_P2;Temp;Humidity;BMP_temperature;BMP_pressure;BME280_temperature;BME280_humidity;BME280_pressure;Samples;Min_cycle;Max_cycle;Signal;HPM_P1;HPM_P2
2022/01/02 05:00:37;;;;;;;6.82;6.18;;;10.40;99.90;;;;;;5842998;23;20236;-69
2022/01/02 05:03:04;;;;;;;7.85;7.15;;;10.40;99.90;;;;;;4937185;29;20209;-68
2022/01/02 05:05:31;;;;;;;8.75;7.60;;;10.40;99.90;;;;;;4944775;29;20202;-67
2022/01/02 05:07:58;;;;;;;7.18;6.30;;;10.40;99.90;;;;;;4954889;29;20272;-67
2022/01/02 05:10:25;;;;;;;9.07;6.93;;;10.40;99.90;;;;;;4950180;29;20268;-67
2022/01/02 05:12:51;;;;;;;9.48;6.57;;;10.40;99.90;;;;;;4935719;29;20206;-67
2022/01/02 05:15:18;;;;;;;8.32;6.45;;;10.40;99.90;;;;;;4925419;29;20249;-68
2022/01/02 05:17:46;;;;;;;8.65;6.28;;;10.40;99.90;;;;;;4916464;29;20282;-67
2022/01/02 05:20:13;;;;;;;9.43;6.93;;;10.40;99.90;;;;;;4929235;29;20221;-67
2022/01/02 05:22:40;;;;;;;9.07;6.80;;;10.40;99.90;;;;;;4935582;29;20210;-68
2022/01/02 05:25:07;;;;;;;8.00;6.97;;;10.40;99.90;;;;;;4930704;29;20702;-68
2022/01/02 05:27:34;;;;;;;11.70;7.35;;;10.40;99.90;;;;;;4924034;29;20218;-67
2022/01/02 05:30:01;;;;;;;7.50;6.47;;;10.40;99.90;;;;;;4917093;29;20211;-68
2022/01/02 05:32:27;;;;;;;9.90;6.97;;;10.40;99.90;;;;;;4930850;29;20285;-67
2022/01/02 05:34:55;;;;;;;7.20;6.45;;;10.40;99.90;;;;;;4925388;29;20332;-68
2022/01/02 05:37:22;;;;;;;7.88;6.63;;;10.50;99.90;;;;;;4935262;29;20253;-67
2022/01/02 05:39:49;;;;;;;9.10;6.47;;;10.50;99.90;;;;;;4930674;29;20202;-68
2022/01/02 05:42:15;;;;;;;7.82;6.15;;;10.50;99.90;;;;;;4935310;29;20221;-67
2022/01/02 05:44:42;;;;;;;8.02;6.85;;;10.50;99.90;;;;;;4931189;29;20281;-68
2022/01/02 05:47:09;;;;;;;7.30;6.38;;;10.40;99.90;;;;;;4915966;29;20331;-68
2022/01/02 05:49:36;;;;;;;10.27;7.90;;;10.40;99.90;;;;;;4933549;29;20218;-68
2022/01/02 05:52:04;;;;;;;8.20;6.95;;;10.40;99.90;;;;;;4934676;29;20222;-68
2022/01/02 05:54:31;;;;;;;7.80;6.40;;;10.50;99.90;;;;;;4934343;29;20575;-68
2022/01/02 05:56:58;;;;;;;7.32;5.95;;;10.50;99.90;;;;;;4931575;29;20824;-68
2022/01/02 05:59:24;;;;;;;6.90;5.70;;;10.50;99.90;;;;;;4921593;29;20198;-67
2022/01/02 06:01:51;;;;;;;7.38;6.03;;;10.50;99.90;;;;;;4934017;29;20624;-67
2022/01/02 06:04:18;;;;;;;7.40;6.28;;;10.50;99.90;;;;;;4933341;29;20209;-67
2022/01/02 06:06:44;;;;;;;9.60;6.15;;;10.50;99.90;;;;;;4929241;29;20580;-67
2022/01/02 06:09:12;;;;;;;7.68;6.53;;;10.50;99.90;;;;;;4919940;29;20198;-67
2022/01/02 06:11:39;;;;;;;7.45;6.20;;;10.50;99.90;;;;;;4924326;29;20699;-68
2022/01/02 06:14:06;;;;;;;8.82;6.43;;;10.50;99.90;;;;;;4915918;29;20258;-68
2022/01/02 06:16:33;;;;;;;7.40;6.70;;;10.50;99.90;;;;;;4925774;29;20236;-68
2022/01/02 06:18:59;;;;;;;7.25;6.20;;;10.50;99.90;;;;;;4915905;29;20269;-67
2022/01/02 06:21:26;;;;;;;8.73;5.65;;;10.50;99.90;;;;;;4917306;29;20238;-68
2022/01/02 06:23:52;;;;;;;7.72;6.72;;;10.50;99.90;;;;;;4931674;29;20210;-67
2022/01/02 06:26:20;;;;;;;7.22;6.55;;;10.50;99.90;;;;;;4934309;29;20256;-67
2022/01/02 06:28:47;;;;;;;5.45;5.00;;;10.50;99.90;;;;;;4930575;29;20271;-67
2022/01/02 06:31:14;;;;;;;9.98;5.78;;;10.50;99.90;;;;;;4915158;29;20719;-68
2022/01/02 06:33:40;;;;;;;6.97;5.50;;;10.50;99.90;;;;;;4927748;29;20683;-67
2022/01/02 06:36:07;;;;;;;6.40;5.20;;;10.50;99.90;;;;;;4926026;29;20221;-68
2022/01/02 06:38:34;;;;;;;8.80;7.07;;;10.50;99.90;;;;;;4922261;29;20211;-67
2022/01/02 06:41:00;;;;;;;7.85;5.47;;;10.50;99.90;;;;;;4915314;29;20872;-68
2022/01/02 06:43:28;;;;;;;9.15;5.30;;;10.60;99.90;;;;;;4925972;29;20214;-67
2022/01/02 06:45:55;;;;;;;10.00;5.75;;;10.60;99.90;;;;;;4920908;29;20207;-68
2022/01/02 06:48:22;;;;;;;6.65;5.32;;;10.60;99.90;;;;;;4923950;29;20214;-68
2022/01/02 06:50:48;;;;;;;5.85;5.20;;;10.60;99.90;;;;;;4933837;29;20290;-68
2022/01/02 06:53:15;;;;;;;7.43;4.47;;;10.60;99.90;;;;;;4931662;29;20205;-67
2022/01/02 06:55:42;;;;;;;4.82;4.15;;;10.70;99.90;;;;;;4933540;29;20218;-68
2022/01/02 06:58:08;;;;;;;7.20;5.22;;;10.70;99.90;;;;;;4932432;29;20202;-68
2022/01/02 07:00:37;;;;;;;8.00;4.85;;;10.70;99.90;;;;;;4935491;29;20245;-68
2022/01/02 07:03:03;;;;;;;6.85;5.20;;;10.80;99.90;;;;;;4920062;29;20210;-66
2022/01/02 07:05:30;;;;;;;8.20;4.32;;;10.80;99.90;;;;;;4919739;29;20247;-68
2022/01/02 07:07:57;;;;;;;7.15;4.70;;;10.90;99.90;;;;;;4933905;29;20213;-68
2022/01/02 07:10:23;;;;;;;9.18;4.75;;;10.90;99.90;;;;;;4926041;29;20225;-67
2022/01/02 07:12:50;;;;;;;7.78;5.10;;;10.90;99.90;;;;;;4920976;29;20266;-68
2022/01/02 07:15:17;;;;;;;5.72;4.82;;;10.90;99.90;;;;;;4914971;29;20210;-68
2022/01/02 07:17:45;;;;;;;9.48;4.68;;;10.90;99.90;;;;;;4914455;29;20293;-66
2022/01/02 07:20:13;;;;;;;7.30;5.00;;;10.90;99.90;;;;;;4914815;29;20207;-67
2022/01/02 07:22:42;;;;;;;8.25;4.70;;;11.00;99.90;;;;;;4925458;29;20202;-66
2022/01/02 07:25:10;;;;;;;5.97;3.53;;;11.00;99.90;;;;;;4915203;29;20663;-68
2022/01/02 07:27:37;;;;;;;17.23;4.45;;;11.00;99.90;;;;;;4932507;29;20273;-67
2022/01/02 07:30:05;;;;;;;8.38;4.53;;;11.10;99.90;;;;;;4932086;29;20218;-67
2022/01/02 07:32:32;;;;;;;7.78;5.50;;;11.10;99.90;;;;;;4916608;29;20230;-67
2022/01/02 07:35:00;;;;;;;5.88;4.22;;;11.10;99.90;;;;;;4914134;29;20210;-67
2022/01/02 07:37:26;;;;;;;5.60;4.32;;;11.10;99.90;;;;;;4932231;29;20234;-68
2022/01/02 07:39:53;;;;;;;6.07;4.68;;;11.10;99.90;;;;;;4932651;29;20221;-68
2022/01/02 07:42:20;;;;;;;8.57;4.75;;;11.20;99.90;;;;;;4918757;29;20289;-68
2022/01/02 07:44:46;;;;;;;4.20;3.90;;;11.20;99.90;;;;;;4914226;29;20210;-67
2022/01/02 07:47:13;;;;;;;4.78;4.22;;;11.20;99.90;;;;;;4929341;29;20213;-68
2022/01/02 07:49:40;;;;;;;6.32;4.80;;;11.30;99.90;;;;;;4932762;29;20220;-69
2022/01/02 07:52:08;;;;;;;5.07;4.57;;;11.30;99.90;;;;;;4931269;29;20236;-67
2022/01/02 07:54:34;;;;;;;9.20;4.50;;;11.30;99.90;;;;;;4925079;29;20218;-67
2022/01/02 07:57:01;;;;;;;7.72;4.95;;;11.40;99.90;;;;;;4917531;29;20249;-68
2022/01/02 07:59:28;;;;;;;5.53;4.07;;;11.40;99.90;;;;;;4917219;29;20265;-68
2022/01/02 08:01:55;;;;;;;4.82;4.20;;;11.50;99.90;;;;;;4926699;29;20233;-67
2022/01/02 08:04:21;;;;;;;8.23;4.97;;;11.50;99.90;;;;;;4930875;29;20210;-68
2022/01/02 08:06:48;;;;;;;5.55;4.90;;;11.60;99.90;;;;;;4933226;29;20261;-68
2022/01/02 08:09:16;;;;;;;6.20;4.20;;;11.50;99.90;;;;;;4928764;29;20202;-68
2022/01/02 08:11:43;;;;;;;6.40;4.95;;;11.50;99.90;;;;;;4922709;29;20234;-67
2022/01/02 08:14:09;;;;;;;6.32;4.35;;;11.50;99.90;;;;;;4930430;29;20608;-68
2022/01/02 08:16:36;;;;;;;6.57;5.32;;;11.60;99.90;;;;;;4918987;29;20225;-67
2022/01/02 08:19:05;;;;;;;7.80;5.07;;;11.60;99.90;;;;;;4929401;29;20202;-67
2022/01/02 08:21:32;;;;;;;5.38;4.88;;;11.60;99.90;;;;;;4914333;29;20746;-67
2022/01/02 08:23:59;;;;;;;7.65;5.35;;;11.60;99.90;;;;;;4920754;29;20356;-67
2022/01/02 08:26:27;;;;;;;7.13;4.57;;;11.60;99.90;;;;;;4921011;29;20724;-67
2022/01/02 08:28:53;;;;;;;6.05;4.88;;;11.60;99.90;;;;;;4932629;29;20213;-67
2022/01/02 08:31:20;;;;;;;6.22;4.32;;;11.60;99.90;;;;;;4913954;29;20226;-67
2022/01/02 08:33:47;;;;;;;8.77;4.55;;;11.60;99.90;;;;;;4913413;29;20211;-67
2022/01/02 08:36:13;;;;;;;5.20;4.70;;;11.70;99.90;;;;;;4928483;29;20288;-67
2022/01/02 08:38:40;;;;;;;4.78;4.30;;;11.70;99.90;;;;;;4925207;29;20671;-67
2022/01/02 08:41:07;;;;;;;9.40;5.25;;;11.70;99.90;;;;;;4929934;29;20248;-67
2022/01/02 08:43:35;;;;;;;8.38;4.85;;;11.70;99.90;;;;;;4917443;29;20215;-67
2022/01/02 08:46:02;;;;;;;5.32;4.80;;;11.70;99.90;;;;;;4914868;29;20637;-67
2022/01/02 08:48:28;;;;;;;8.48;4.72;;;11.70;99.90;;;;;;4912886;29;20214;-67
2022/01/02 08:50:55;;;;;;;6.40;4.95;;;11.70;99.90;;;;;;4921911;29;20564;-67
2022/01/02 08:53:22;;;;;;;5.97;4.43;;;11.80;99.90;;;;;;4922730;29;20202;-67
2022/01/02 08:55:49;;;;;;;5.47;4.10;;;11.80;99.90;;;;;;4924891;29;20215;-68
2022/01/02 08:58:16;;;;;;;5.23;4.73;;;11.80;99.90;;;;;;4919128;29;20703;-68
2022/01/02 09:00:43;;;;;;;8.75;5.05;;;11.80;99.90;;;;;;4932170;29;20497;-68
2022/01/02 09:03:10;;;;;;;7.32;5.20;;;11.80;99.90;;;;;;4917448;29;20277;-67
2022/01/02 09:05:37;;;;;;;8.48;5.40;;;11.80;99.90;;;;;;4935918;29;20217;-67
2022/01/02 09:08:04;;;;;;;10.70;5.38;;;11.80;99.90;;;;;;4932698;29;20202;-68
2022/01/02 09:10:30;;;;;;;9.88;5.68;;;11.80;99.90;;;;;;4931300;29;20206;-67
2022/01/02 09:12:57;;;;;;;8.90;5.37;;;11.80;99.90;;;;;;4935327;29;20209;-68
2022/01/02 09:15:24;;;;;;;5.90;5.22;;;11.80;99.90;;;;;;4932442;29;20462;-67
2022/01/02 09:17:52;;;;;;;6.20;4.70;;;11.80;99.90;;;;;;4934404;29;20221;-68
2022/01/02 09:20:20;;;;;;;6.78;4.80;;;11.80;99.90;;;;;;4928725;29;20218;-67
2022/01/02 09:22:47;;;;;;;4.40;4.10;;;11.80;99.90;;;;;;4933504;29;20213;-68
2022/01/02 09:25:14;;;;;;;5.25;4.80;;;11.80;99.90;;;;;;4919345;29;20242;-67
2022/01/02 09:27:41;;;;;;;7.28;4.75;;;11.90;99.90;;;;;;4923741;29;20274;-68
2022/01/02 09:30:09;;;;;;;8.80;5.15;;;11.80;99.90;;;;;;4922910;29;20288;-68
2022/01/02 09:32:36;;;;;;;6.00;5.45;;;11.80;99.90;;;;;;4930136;29;20269;-68
2022/01/02 09:35:05;;;;;;;9.13;4.30;;;11.90;99.90;;;;;;4916694;29;20202;-68
2022/01/02 09:37:34;;;;;;;8.77;4.38;;;11.80;99.90;;;;;;4916582;29;21050;-68
2022/01/02 09:40:00;;;;;;;5.07;4.57;;;11.90;99.90;;;;;;4923831;29;20651;-68
2022/01/02 09:42:28;;;;;;;7.57;4.78;;;11.90;99.90;;;;;;4933704;29;21010;-68
2022/01/02 09:44:55;;;;;;;6.75;4.60;;;11.80;99.90;;;;;;4933532;29;20210;-68
2022/01/02 09:47:24;;;;;;;7.28;4.82;;;11.90;99.90;;;;;;4926548;29;20730;-68
2022/01/02 09:49:50;;;;;;;9.43;4.25;;;11.90;99.90;;;;;;4928769;29;20558;-68
2022/01/02 09:52:19;;;;;;;5.37;4.87;;;11.80;99.90;;;;;;4923066;29;20732;-68
2022/01/02 09:54:46;;;;;;;7.50;4.80;;;11.80;99.90;;;;;;4916245;29;20485;-68
2022/01/02 09:57:13;;;;;;;4.15;3.85;;;11.80;99.90;;;;;;4923854;29;20596;-68
2022/01/02 09:59:40;;;;;;;9.65;4.75;;;11.80;99.90;;;;;;4920048;29;20225;-69
2022/01/02 10:02:08;;;;;;;5.88;3.90;;;11.80;99.90;;;;;;4925790;29;20289;-67
2022/01/02 10:04:37;;;;;;;6.63;5.97;;;11.80;99.90;;;;;;4930313;29;20682;-67
2022/01/02 10:07:04;;;;;;;8.43;6.22;;;11.80;99.90;;;;;;4923156;29;20318;-66
2022/01/02 10:09:35;;;;;;;7.90;3.40;;;11.80;99.90;;;;;;4925629;29;20667;-67
2022/01/02 10:12:25;;;;;;;5.05;4.20;;;11.80;99.90;;;;;;4934257;29;20485;-66
2022/01/02 10:15:10;;;;;;;5.80;4.80;;;11.80;99.90;;;;;;4924435;29;20679;-66
2022/01/02 10:17:52;;;;;;;7.30;4.23;;;11.80;99.90;;;;;;4915652;29;20611;-67
2022/01/02 10:20:20;;;;;;;6.45;4.55;;;11.80;99.90;;;;;;4926891;29;20475;-67
2022/01/02 10:23:01;;;;;;;5.28;4.45;;;11.80;99.90;;;;;;4932600;29;20213;-67
2022/01/02 10:25:44;;;;;;;11.77;4.97;;;11.80;99.90;;;;;;4923122;29;20271;-67
2022/01/02 10:28:22;;;;;;;7.25;3.50;;;11.80;99.90;;;;;;4915556;29;20214;-66
2022/01/02 10:30:50;;;;;;;5.75;4.30;;;11.80;99.90;;;;;;4931273;29;20225;-67
2022/01/02 10:33:17;;;;;;;4.82;4.43;;;11.80;99.90;;;;;;4925270;29;20206;-67
2022/01/02 10:35:44;;;;;;;5.13;4.03;;;11.90;99.90;;;;;;4922942;29;20214;-67
2022/01/02 10:38:16;;;;;;;5.17;4.07;;;11.90;99.90;;;;;;4933172;29;20321;-67
2022/01/02 10:40:46;;;;;;;4.20;3.30;;;11.90;99.90;;;;;;4928725;29;20490;-67
2022/01/02 10:43:24;;;;;;;3.50;3.23;;;11.90;99.90;;;;;;4926536;29;20206;-68
2022/01/02 10:45:52;;;;;;;4.25;3.78;;;11.90;99.90;;;;;;4927647;29;20564;-68
2022/01/02 10:48:31;;;;;;;4.03;3.70;;;11.90;99.90;;;;;;4925967;29;20232;-67
2022/01/02 10:51:02;;;;;;;4.40;4.05;;;12.00;99.90;;;;;;4919698;29;20290;-68
2022/01/02 10:53:29;;;;;;;5.63;5.25;;;11.90;99.90;;;;;;4918246;29;20575;-68
2022/01/02 10:55:58;;;;;;;7.20;5.03;;;11.90;99.90;;;;;;4926076;29;20206;-68
2022/01/02 10:58:27;;;;;;;7.38;4.10;;;12.00;99.90;;;;;;4915721;29;20223;-68
2022/01/02 11:00:54;;;;;;;6.47;4.50;;;12.00;99.90;;;;;;4916755;29;20266;-68
2022/01/02 11:03:24;;;;;;;5.38;5.07;;;12.10;99.90;;;;;;4914712;29;20218;-68
2022/01/02 11:05:57;;;;;;;5.57;4.20;;;12.10;99.90;;;;;;4928260;29;20202;-68
2022/01/02 11:08:28;;;;;;;4.00;3.65;;;12.00;99.90;;;;;;4928351;29;20261;-68
2022/01/02 11:10:57;;;;;;;8.48;5.18;;;12.10;99.90;;;;;;4914926;29;20246;-68
2022/01/02 11:13:25;;;;;;;5.93;5.27;;;12.10;99.90;;;;;;4916911;29;20210;-68
2022/01/02 11:15:53;;;;;;;4.70;4.38;;;12.10;99.90;;;;;;4925737;29;20549;-67
2022/01/02 11:18:21;;;;;;;6.22;3.47;;;12.00;99.90;;;;;;4920611;29;20301;-68
2022/01/02 11:20:48;;;;;;;4.22;3.92;;;12.00;99.90;;;;;;4916137;29;20774;-67
2022/01/02 11:23:20;;;;;;;3.80;3.50;;;12.00;99.90;;;;;;4926625;29;20206;-67
2022/01/02 11:25:52;;;;;;;3.50;3.28;;;12.00;99.90;;;;;;4918024;29;20218;-68
2022/01/02 11:28:34;;;;;;;6.95;4.95;;;12.00;99.90;;;;;;4930203;29;20202;-68
2022/01/02 11:31:02;;;;;;;5.22;4.28;;;12.00;99.90;;;;;;4924317;29;20715;-68
2022/01/02 11:33:31;;;;;;;6.03;4.88;;;12.00;99.90;;;;;;4928729;29;20264;-68
2022/01/02 11:36:00;;;;;;;4.97;4.65;;;12.00;99.90;;;;;;4921181;29;20209;-67
2022/01/02 11:38:43;;;;;;;6.75;4.75;;;12.00;99.90;;;;;;4915773;29;20230;-68
2022/01/02 11:41:13;;;;;;;5.43;4.93;;;12.10;99.90;;;;;;4918512;29;20830;-68
2022/01/02 11:43:57;;;;;;;5.17;4.40;;;12.10;99.90;;;;;;4916406;29;20480;-71
2022/01/02 11:46:27;;;;;;;4.90;4.57;;;12.20;99.90;;;;;;4924425;29;20469;-70
2022/01/02 11:49:23;;;;;;;5.40;4.50;;;12.20;99.90;;;;;;4920226;29;20201;-69
2022/01/02 11:52:07;;;;;;;10.73;5.20;;;12.20;99.90;;;;;;4924094;29;21013;-70
2022/01/02 11:54:48;;;;;;;6.57;6.07;;;12.20;99.90;;;;;;4921618;29;20892;-70
2022/01/02 11:57:48;;;;;;;7.53;4.90;;;12.30;99.90;;;;;;4917145;29;20226;-68
2022/01/02 12:00:46;;;;;;;8.57;4.70;;;12.40;99.90;;;;;;4924758;29;20228;-69
2022/01/02 12:03:48;;;;;;;4.90;4.50;;;12.40;99.90;;;;;;4929480;29;20478;-69
2022/01/02 12:06:17;;;;;;;15.43;9.00;;;12.40;99.90;;;;;;4918296;29;20852;-69
2022/01/02 12:08:44;;;;;;;5.97;5.33;;;12.40;99.90;;;;;;4914731;29;20466;-70
2022/01/02 12:11:40;;;;;;;8.50;5.97;;;12.50;99.90;;;;;;4924469;29;20897;-69
2022/01/02 12:14:08;;;;;;;7.57;4.90;;;12.40;99.90;;;;;;4929661;29;20516;-69
2022/01/02 12:16:38;;;;;;;5.40;4.93;;;12.40;99.90;;;;;;4933193;29;20469;-69
2022/01/02 12:19:06;;;;;;;5.13;4.70;;;12.40;99.90;;;;;;4919423;29;20500;-67
2022/01/02 12:21:33;;;;;;;8.17;4.90;;;12.40;99.90;;;;;;4913447;29;20584;-66
2022/01/02 12:24:03;;;;;;;7.70;4.67;;;12.40;99.90;;;;;;4913781;29;20467;-68
2022/01/02 12:26:32;;;;;;;4.93;4.53;;;12.40;99.90;;;;;;4918500;29;20847;-67
2022/01/02 12:29:02;;;;;;;10.30;5.40;;;12.40;99.90;;;;;;4936612;29;20485;-67
2022/01/02 12:31:31;;;;;;;5.40;4.80;;;12.40;99.90;;;;;;4917116;29;20491;-67
2022/01/02 12:34:12;;;;;;;6.67;5.00;;;12.40;99.90;;;;;;4925136;29;20487;-67
2022/01/02 12:36:42;;;;;;;5.17;4.67;;;12.40;99.90;;;;;;4936672;29;20481;-67
2022/01/02 12:39:11;;;;;;;8.80;5.87;;;12.40;99.90;;;;;;4937035;29;20493;-67
2022/01/02 12:41:40;;;;;;;8.47;4.70;;;12.40;99.90;;;;;;4936092;29;20904;-67
2022/01/02 12:44:09;;;;;;;9.98;5.05;;;12.40;99.90;;;;;;4920062;29;20466;-67
2022/01/02 12:46:38;;;;;;;8.70;5.13;;;12.40;99.90;;;;;;4917474;29;20210;-67
2022/01/02 12:49:07;;;;;;;6.17;4.90;;;12.40;99.90;;;;;;4930623;29;20497;-67
2022/01/02 12:51:38;;;;;;;5.40;4.90;;;12.50;99.90;;;;;;4936299;29;20903;-67
2022/01/02 12:54:06;;;;;;;5.90;4.57;;;12.50;99.90;;;;;;4936374;29;20928;-67
2022/01/02 12:56:39;;;;;;;9.60;5.10;;;12.60;99.90;;;;;;4936443;29;20489;-67
2022/01/02 12:59:20;;;;;;;7.00;4.13;;;12.60;99.90;;;;;;4936048;29;20496;-69
2022/01/02 13:01:52;;;;;;;5.83;4.77;;;12.60;99.90;;;;;;4935860;29;20551;-67
2022/01/02 13:04:21;;;;;;;11.47;5.10;;;12.60;99.90;;;;;;4935318;29;20477;-67
2022/01/02 13:06:51;;;;;;;5.90;5.40;;;12.60;99.90;;;;;;4936015;29;20470;-67
2022/01/02 13:09:23;;;;;;;6.33;5.00;;;12.60;99.90;;;;;;4935771;29;20469;-66
2022/01/02 13:11:50;;;;;;;6.80;5.23;;;12.60;99.90;;;;;;4929760;29;20486;-66
2022/01/02 13:14:30;;;;;;;5.20;4.80;;;12.70;99.90;;;;;;4920347;29;20474;-67
2022/01/02 13:16:58;;;;;;;6.43;4.73;;;12.60;99.90;;;;;;4934037;29;20484;-67
2022/01/02 13:19:25;;;;;;;4.50;4.03;;;12.60;99.90;;;;;;4934361;29;20725;-69
2022/01/02 13:21:53;;;;;;;5.30;4.90;;;12.60;99.90;;;;;;4935276;29;20511;-67
2022/01/02 13:24:24;;;;;;;6.43;4.77;;;12.60;99.90;;;;;;4935128;29;20537;-67
2022/01/02 13:26:51;;;;;;;5.60;4.33;;;12.60;99.90;;;;;;4936009;29;20552;-68
2022/01/02 13:29:22;;;;;;;6.47;4.73;;;12.60;99.90;;;;;;4933548;29;20935;-66
2022/01/02 13:31:49;;;;;;;5.83;5.30;;;12.60;99.90;;;;;;4934221;29;20486;-67
2022/01/02 13:34:22;;;;;;;5.07;4.60;;;12.60;99.90;;;;;;4933539;29;20470;-68
2022/01/02 13:36:57;;;;;;;5.07;4.67;;;12.60;99.90;;;;;;4915871;29;20586;-67
2022/01/02 13:39:42;;;;;;;6.20;4.27;;;12.60;99.90;;;;;;4920249;29;20593;-67
2022/01/02 13:42:10;;;;;;;5.97;4.83;;;12.60;99.90;;;;;;4916650;29;20490;-67
2022/01/02 13:44:37;;;;;;;4.93;4.50;;;12.60;99.90;;;;;;4926104;29;20476;-67
2022/01/02 13:47:05;;;;;;;5.50;4.60;;;12.60;99.90;;;;;;4918812;29;21274;-69
2022/01/02 13:49:49;;;;;;;5.60;5.10;;;12.60;99.90;;;;;;4921972;29;20546;-71
2022/01/02 13:52:18;;;;;;;6.87;5.20;;;12.60;99.90;;;;;;4916152;29;20561;-67
2022/01/02 13:54:46;;;;;;;7.83;5.10;;;12.60;99.90;;;;;;4917707;29;21099;-67
2022/01/02 13:57:14;;;;;;;5.80;5.30;;;12.60;99.90;;;;;;4934627;29;20822;-67
2022/01/02 13:59:41;;;;;;;7.57;6.20;;;12.60;99.90;;;;;;4933229;29;20569;-66
2022/01/02 14:02:08;;;;;;;6.88;5.82;;;12.60;99.90;;;;;;4922016;29;20502;-69
2022/01/02 14:04:59;;;;;;;5.97;4.97;;;12.60;99.90;;;;;;4923402;29;20245;-67
2022/01/02 14:07:32;;;;;;;5.22;4.82;;;12.60;99.90;;;;;;4921456;29;20213;-70
2022/01/02 14:10:00;;;;;;;9.17;5.60;;;12.50;99.90;;;;;;4916274;29;20250;-66
2022/01/02 14:12:28;;;;;;;6.10;5.47;;;12.50;99.90;;;;;;4915327;29;20492;-67
2022/01/02 14:15:06;;;;;;;5.60;5.20;;;12.50;99.90;;;;;;4920104;29;20962;-66
2022/01/02 14:17:34;;;;;;;5.43;4.93;;;12.50;99.90;;;;;;4926361;29;20238;-67
2022/01/02 14:20:03;;;;;;;7.45;5.68;;;12.50;99.90;;;;;;4926127;29;20458;-67
2022/01/02 14:22:35;;;;;;;8.03;5.97;;;12.50;99.90;;;;;;4915641;29;20227;-68
2022/01/02 14:25:04;;;;;;;15.33;8.47;;;12.50;99.90;;;;;;4929131;29;20466;-68
2022/01/02 14:27:31;;;;;;;6.90;5.90;;;12.40;99.90;;;;;;4933451;29;20561;-66
2022/01/02 14:29:59;;;;;;;5.83;5.50;;;12.40;99.90;;;;;;4933202;29;20836;-68
2022/01/02 14:32:27;;;;;;;5.85;5.45;;;12.40;99.90;;;;;;4926544;29;20497;-67
2022/01/02 14:34:55;;;;;;;6.05;5.40;;;12.40;99.90;;;;;;4926137;29;20695;-68
2022/01/02 14:37:23;;;;;;;6.00;5.45;;;12.40;99.90;;;;;;4931136;29;20237;-67
2022/01/02 14:39:51;;;;;;;5.80;5.33;;;12.40;99.90;;;;;;4924374;29;20605;-67
2022/01/02 14:42:18;;;;;;;8.13;7.43;;;12.40;99.90;;;;;;4914997;29;20501;-67
2022/01/02 14:44:45;;;;;;;5.93;5.63;;;12.30;99.90;;;;;;4917238;29;20876;-66
2022/01/02 14:47:12;;;;;;;7.60;5.70;;;12.40;99.90;;;;;;4924221;29;20473;-67
2022/01/02 14:49:38;;;;;;;6.13;5.63;;;12.50;99.90;;;;;;4932065;29;20671;-69
2022/01/02 14:52:05;;;;;;;8.80;6.80;;;12.50;99.90;;;;;;4918412;29;20804;-67
2022/01/02 14:54:32;;;;;;;5.53;5.03;;;12.50;99.90;;;;;;4927825;29;20482;-66
2022/01/02 14:57:01;;;;;;;6.30;5.72;;;12.50;99.90;;;;;;4932940;29;20584;-67
2022/01/02 14:59:29;;;;;;;5.20;4.80;;;12.50;99.90;;;;;;4926284;29;20405;-71
2022/01/02 15:01:56;;;;;;;5.53;4.67;;;12.50;99.90;;;;;;4923734;29;20536;-67
2022/01/02 15:04:23;;;;;;;4.55;4.25;;;12.50;99.90;;;;;;4926321;29;20512;-66
2022/01/02 15:06:51;;;;;;;4.47;4.23;;;12.50;99.90;;;;;;4932553;29;20672;-67
2022/01/02 15:09:18;;;;;;;7.03;4.37;;;12.50;99.90;;;;;;4920402;29;20549;-68
2022/01/02 15:11:45;;;;;;;4.90;4.60;;;12.40;99.90;;;;;;4933660;29;20493;-67
2022/01/02 15:14:13;;;;;;;7.77;5.47;;;12.50;99.90;;;;;;4932244;29;20214;-68
2022/01/02 15:16:39;;;;;;;4.60;4.25;;;12.40;99.90;;;;;;4932669;29;20469;-69
2022/01/02 15:19:07;;;;;;;5.50;4.53;;;12.40;99.90;;;;;;4929167;29;20697;-67
2022/01/02 15:21:33;;;;;;;5.50;5.00;;;12.30;99.90;;;;;;4925166;29;20481;-68
2022/01/02 15:24:00;;;;;;;4.30;4.00;;;12.30;99.90;;;;;;4932914;29;20473;-67
2022/01/02 15:26:27;;;;;;;4.00;3.78;;;12.30;99.90;;;;;;4929793;29;20221;-67
2022/01/02 15:28:53;;;;;;;4.45;3.97;;;12.30;99.90;;;;;;4925375;29;20998;-69
2022/01/02 15:31:21;;;;;;;4.07;3.78;;;12.20;99.90;;;;;;4927331;29;20235;-68
2022/01/02 15:33:50;;;;;;;4.28;3.80;;;12.30;99.90;;;;;;4931421;29;20704;-68
2022/01/02 15:36:17;;;;;;;4.28;4.03;;;12.30;99.90;;;;;;4931984;29;20544;-67
2022/01/02 15:38:44;;;;;;;4.47;4.20;;;12.20;99.90;;;;;;4917030;29;20248;-68
2022/01/02 15:41:10;;;;;;;4.82;4.40;;;12.20;99.90;;;;;;4926042;29;20577;-67
2022/01/02 15:43:38;;;;;;;4.17;3.80;;;12.20;99.90;;;;;;4922128;29;20214;-67
2022/01/02 15:46:05;;;;;;;3.13;3.03;;;12.30;99.90;;;;;;4924862;29;20496;-67
2022/01/02 15:48:33;;;;;;;3.65;3.35;;;12.30;99.90;;;;;;4914046;29;20696;-70
2022/01/02 15:51:00;;;;;;;3.27;3.07;;;12.30;99.90;;;;;;4924486;29;20308;-67
2022/01/02 15:53:29;;;;;;;3.97;3.78;;;12.30;99.90;;;;;;4933915;29;20477;-67
2022/01/02 15:55:56;;;;;;;3.35;3.15;;;12.20;99.90;;;;;;4929039;29;20297;-69
2022/01/02 15:58:23;;;;;;;2.50;2.40;;;12.20;99.90;;;;;;4933431;29;20598;-67
2022/01/02 16:00:50;;;;;;;2.85;2.10;;;12.20;99.90;;;;;;4920536;29;20781;-67
2022/01/02 16:03:17;;;;;;;2.58;2.40;;;12.10;99.90;;;;;;4932882;29;20221;-67
2022/01/02 16:05:53;;;;;;;2.20;2.17;;;12.10;99.90;;;;;;4919989;29;20255;-67
2022/01/02 16:08:19;;;;;;;2.60;2.40;;;12.10;99.90;;;;;;4929708;29;20746;-67
2022/01/02 16:10:46;;;;;;;2.50;2.40;;;12.10;99.90;;;;;;4927176;29;20223;-67
2022/01/02 16:13:13;;;;;;;7.97;2.53;;;12.10;99.90;;;;;;4927434;29;20295;-67
2022/01/02 16:15:39;;;;;;;2.75;2.55;;;12.00;99.90;;;;;;4930443;29;20676;-68
2022/01/02 16:18:06;;;;;;;5.18;2.92;;;12.00;99.90;;;;;;4929258;29;20570;-68
2022/01/02 16:20:33;;;;;;;3.15;2.80;;;12.10;99.90;;;;;;4920810;29;20228;-69
2022/01/02 16:23:03;;;;;;;2.30;2.05;;;12.10;99.90;;;;;;4932997;29;20202;-69
2022/01/02 16:25:30;;;;;;;5.95;2.65;;;12.10;99.90;;;;;;4925501;29;20300;-69
2022/01/02 16:27:57;;;;;;;3.08;1.83;;;12.20;99.90;;;;;;4919700;29;20214;-70
2022/01/02 16:30:23;;;;;;;1.95;1.85;;;12.10;99.90;;;;;;4931131;29;20569;-69
2022/01/02 16:32:50;;;;;;;1.50;1.45;;;12.10;99.90;;;;;;4930750;29;20345;-67
2022/01/02 16:35:17;;;;;;;2.72;2.20;;;12.00;99.90;;;;;;4921909;29;20213;-69
2022/01/02 16:37:44;;;;;;;2.38;2.17;;;12.00;99.90;;;;;;4936551;29;20213;-67
2022/01/02 16:40:12;;;;;;;3.90;1.55;;;12.00;99.90;;;;;;4925065;29;20230;-68
2022/01/02 16:42:39;;;;;;;5.88;2.85;;;12.00;99.90;;;;;;4928697;29;20242;-68
2022/01/02 16:45:08;;;;;;;1.60;1.50;;;12.00;99.90;;;;;;4935108;29;20205;-68
2022/01/02 16:47:36;;;;;;;1.67;1.50;;;12.00;99.90;;;;;;4927105;29;20281;-68
2022/01/02 16:50:04;;;;;;;3.33;1.83;;;12.00;99.90;;;;;;4933518;29;20261;-67
2022/01/02 16:52:31;;;;;;;1.83;1.38;;;12.00;99.90;;;;;;4925770;29;20614;-68
2022/01/02 16:54:57;;;;;;;4.63;1.90;;;12.00;99.90;;;;;;4921446;29;20265;-70
2022/01/02 16:57:25;;;;;;;2.00;1.70;;;12.00;99.90;;;;;;4933622;29;20575;-69
2022/01/02 16:59:52;;;;;;;2.33;1.98;;;11.90;99.90;;;;;;4934389;29;20234;-68
2022/01/02 17:02:19;;;;;;;1.95;1.70;;;11.90;99.90;;;;;;4928211;29;20231;-67
2022/01/02 17:04:47;;;;;;;2.13;1.70;;;11.90;99.90;;;;;;4916646;29;20689;-70
2022/01/02 17:07:13;;;;;;;2.15;1.95;;;11.90;99.90;;;;;;4933101;29;20202;-69
2022/01/02 17:09:40;;;;;;;4.63;2.47;;;11.90;99.90;;;;;;4935186;29;20213;-69
2022/01/02 17:12:07;;;;;;;3.03;1.77;;;11.80;99.90;;;;;;4929098;29;20237;-68
2022/01/02 17:14:35;;;;;;;1.90;1.65;;;11.80;99.90;;;;;;4935713;29;20634;-69
2022/01/02 17:17:03;;;;;;;2.05;1.85;;;11.80;99.90;;;;;;4934255;29;20214;-71
2022/01/02 17:19:30;;;;;;;4.75;1.40;;;11.80;99.90;;;;;;4925203;29;20269;-68
2022/01/02 17:21:56;;;;;;;2.90;1.70;;;11.70;99.90;;;;;;4931929;29;20321;-68
2022/01/02 17:24:24;;;;;;;2.63;1.80;;;11.70;99.90;;;;;;4929679;29;20214;-68
2022/01/02 17:26:51;;;;;;;2.05;1.95;;;11.70;99.90;;;;;;4926150;29;20207;-69
2022/01/02 17:29:18;;;;;;;1.90;1.30;;;11.60;99.90;;;;;;4932771;29;20202;-67
2022/01/02 17:31:58;;;;;;;2.28;1.98;;;11.60;99.90;;;;;;4917098;29;20234;-68
2022/01/02 17:34:25;;;;;;;1.17;1.17;;;11.60;99.90;;;;;;4916943;29;20549;-67
2022/01/02 17:36:52;;;;;;;2.33;1.50;;;11.60;99.90;;;;;;4916341;29;20210;-67
2022/01/02 17:39:19;;;;;;;2.83;2.67;;;11.60;99.90;;;;;;4925712;29;20252;-68
2022/01/02 17:41:45;;;;;;;5.32;1.70;;;11.60;99.90;;;;;;4935353;29;20237;-67
2022/01/02 17:44:15;;;;;;;2.30;1.50;;;11.60;99.90;;;;;;4933686;29;20202;-67
2022/01/02 17:46:42;;;;;;;1.45;1.40;;;11.50;99.90;;;;;;4924029;29;20212;-67
2022/01/02 17:49:11;;;;;;;3.78;1.60;;;11.50;99.90;;;;;;4926816;29;20206;-68
2022/01/02 17:51:38;;;;;;;1.58;1.58;;;11.50;99.90;;;;;;4929344;29;20231;-67
2022/01/02 17:54:04;;;;;;;2.85;2.28;;;11.50;99.90;;;;;;4916095;29;20612;-68